Time;durP1;ratioP1;P1;durP2;ratioP2;P2;SDS_P1;SDS_P2;PMS_P1;PMS_P2;Temp;Humidity;BMP_temperature;BMP_pressure;BME280_temperature;BME280_humidity;BME280_pressure;Samples;Min_cycle;Max_cycle;Signal;HPM_P1;HPM_P2
2022/06/25 00:00:33;;;;;;;8.15;4.32;;;25.30;86.30;;;;;;5115965;27;20047;-71
2022/06/25 00:02:58;;;;;;;7.75;4.63;;;25.30;86.60;;;;;;5129550;27;20039;-71
2022/06/25 00:05:27;;;;;;;5.90;4.25;;;25.40;86.40;;;;;;5105841;28;20165;-72
2022/06/25 00:07:52;;;;;;;6.30;4.28;;;25.20;89.40;;;;;;5112576;28;20040;-69
2022/06/25 00:10:18;;;;;;;6.28;3.95;;;25.10;86.50;;;;;;5112507;28;20049;-71
2022/06/25 00:12:44;;;;;;;7.05;4.05;;;25.40;86.60;;;;;;5130186;28;20042;-71
2022/06/25 00:15:10;;;;;;;7.90;4.57;;;25.30;89.80;;;;;;5132578;28;20039;-71
2022/06/25 00:17:36;;;;;;;7.53;4.80;;;25.10;86.20;;;;;;5132019;28;20051;-71
2022/06/25 00:20:05;;;;;;;6.90;4.13;;;25.50;86.70;;;;;;5134049;27;20130;-64
2022/06/25 00:22:31;;;;;;;8.05;4.78;;;25.30;85.30;;;;;;5133754;27;20392;-65
2022/06/25 00:24:57;;;;;;;7.20;4.85;;;25.50;86.80;;;;;;5132824;28;20047;-65
2022/06/25 00:27:22;;;;;;;7.65;4.45;;;25.30;90.10;;;;;;5129895;28;20031;-73
2022/06/25 00:29:48;;;;;;;7.57;4.32;;;25.30;86.70;;;;;;5133093;28;20035;-64
2022/06/25 00:32:14;;;;;;;7.00;4.80;;;25.40;86.70;;;;;;5132452;28;20035;-66
2022/06/25 00:34:40;;;;;;;8.88;5.13;;;25.40;86.80;;;;;;5113865;28;20040;-71
2022/06/25 00:37:06;;;;;;;7.50;4.97;;;25.20;89.70;;;;;;5119268;27;20035;-69
2022/06/25 00:39:32;;;;;;;7.25;4.75;;;25.40;87.00;;;;;;5132508;28;20039;-71
2022/06/25 00:41:58;;;;;;;13.50;5.25;;;25.50;86.80;;;;;;5133962;28;20047;-71
2022/06/25 00:44:25;;;;;;;6.97;4.90;;;25.10;86.60;;;;;;5119899;28;20051;-70
2022/06/25 00:46:51;;;;;;;7.95;5.13;;;25.20;86.70;;;;;;5116290;28;20027;-70
2022/06/25 00:49:17;;;;;;;7.75;5.25;;;25.10;86.60;;;;;;5131065;28;20129;-71
2022/06/25 00:51:42;;;;;;;7.60;5.28;;;25.40;86.70;;;;;;5133770;27;20046;-69
2022/06/25 00:54:09;;;;;;;9.13;5.18;;;25.10;86.80;;;;;;5097214;28;20392;-71
2022/06/25 00:56:39;;;;;;;8.18;5.10;;;25.00;89.60;;;;;;5133784;27;20043;-71
2022/06/25 00:59:05;;;;;;;7.70;4.93;;;25.30;87.30;;;;;;5104539;28;20066;-71
2022/06/25 01:01:34;;;;;;;9.95;5.20;;;25.10;86.70;;;;;;5133996;28;20067;-70
2022/06/25 01:04:00;;;;;;;8.80;5.10;;;25.00;87.00;;;;;;5131913;28;20043;-71
2022/06/25 01:06:28;;;;;;;8.27;5.28;;;25.10;86.60;;;;;;5133923;28;20488;-71
2022/06/25 01:08:57;;;;;;;7.97;5.13;;;25.40;87.20;;;;;;5111268;28;20404;-71
2022/06/25 01:11:24;;;;;;;7.80;4.95;;;24.90;85.40;;;;;;5107060;27;20043;-68
2022/06/25 01:13:49;;;;;;;6.88;4.50;;;24.90;87.00;;;;;;5110970;27;20130;-71
2022/06/25 01:16:15;;;;;;;7.53;4.80;;;25.00;86.60;;;;;;5137368;27;20075;-70
2022/06/25 01:18:41;;;;;;;8.80;4.80;;;25.20;86.90;;;;;;5134557;27;20050;-69
2022/06/25 01:21:06;;;;;;;7.57;4.43;;;25.00;86.60;;;;;;5136329;27;20055;-71
2022/06/25 01:23:33;;;;;;;9.38;5.20;;;25.30;87.20;;;;;;5136339;27;20130;-70
2022/06/25 01:25:59;;;;;;;7.28;4.60;;;;;;;;;;5137122;27;20397;-65
2022/06/25 01:28:24;;;;;;;7.85;4.50;;;25.10;84.80;;;;;;5135644;27;20031;-64
2022/06/25 01:30:50;;;;;;;7.00;4.30;;;25.10;86.50;;;;;;5135257;27;20477;-70
2022/06/25 01:33:16;;;;;;;7.95;4.75;;;25.40;87.00;;;;;;5137109;27;20378;-64
2022/06/25 01:35:41;;;;;;;6.30;4.70;;;25.20;86.60;;;;;;5136841;27;20043;-71
2022/06/25 01:38:07;;;;;;;7.70;4.60;;;25.10;86.70;;;;;;5136133;27;20477;-69
2022/06/25 01:40:33;;;;;;;8.20;4.50;;;25.10;89.50;;;;;;5134301;27;20039;-69
2022/06/25 01:43:00;;;;;;;8.35;5.55;;;25.10;89.60;;;;;;5118513;27;20484;-63
2022/06/25 01:45:31;;;;;;;8.73;5.10;;;24.90;89.40;;;;;;5136513;27;20047;-70
2022/06/25 01:47:57;;;;;;;6.53;4.60;;;25.10;87.00;;;;;;5135895;27;20039;-71
2022/06/25 01:50:23;;;;;;;7.32;4.57;;;25.20;89.50;;;;;;5135897;27;20103;-63
2022/06/25 01:52:49;;;;;;;8.18;5.38;;;25.10;86.40;;;;;;5133877;27;20038;-64
2022/06/25 01:55:15;;;;;;;9.95;5.35;;;25.10;86.60;;;;;;5136865;27;20050;-70
2022/06/25 01:57:41;;;;;;;7.53;4.40;;;24.80;86.30;;;;;;5133894;27;20043;-69
2022/06/25 02:00:08;;;;;;;8.63;4.80;;;25.10;86.60;;;;;;5135379;27;20484;-70
2022/06/25 02:02:35;;;;;;;6.88;4.97;;;25.10;86.50;;;;;;5138783;27;20066;-71
2022/06/25 02:05:01;;;;;;;7.15;5.13;;;24.80;86.50;;;;;;5157485;27;20074;-68
2022/06/25 02:07:26;;;;;;;9.82;5.22;;;25.00;86.40;;;;;;5156912;27;20047;-69
2022/06/25 02:09:52;;;;;;;10.02;5.30;;;25.40;86.80;;;;;;5137165;27;20472;-69
2022/06/25 02:12:18;;;;;;;6.97;4.88;;;25.00;89.80;;;;;;5137124;27;20039;-72
2022/06/25 02:14:44;;;;;;;7.50;5.20;;;25.20;86.60;;;;;;5151670;27;20095;-70
2022/06/25 02:17:09;;;;;;;7.15;5.35;;;25.20;87.20;;;;;;5137899;27;20046;-68
2022/06/25 02:19:35;;;;;;;7.80;5.18;;;25.00;86.60;;;;;;5156194;27;20042;-70
2022/06/25 02:22:01;;;;;;;8.32;5.43;;;24.80;86.30;;;;;;5156713;27;20042;-68
2022/06/25 02:24:26;;;;;;;7.95;4.80;;;25.10;86.80;;;;;;5153094;27;20121;-70
2022/06/25 02:26:52;;;;;;;6.00;4.88;;;24.80;86.40;;;;;;5138046;27;20118;-71
2022/06/25 02:29:18;;;;;;;6.90;5.15;;;24.90;90.00;;;;;;5137649;27;20121;-69
2022/06/25 02:31:43;;;;;;;7.55;4.47;;;25.20;86.70;;;;;;5138241;27;20047;-71
2022/06/25 02:34:09;;;;;;;7.35;5.20;;;24.80;89.20;;;;;;5154207;27;20109;-70
2022/06/25 02:36:35;;;;;;;8.77;4.78;;;25.00;86.50;;;;;;5136613;27;20403;-71
2022/06/25 02:39:01;;;;;;;9.18;4.90;;;25.00;86.50;;;;;;5155911;27;20466;-70
2022/06/25 02:41:26;;;;;;;8.45;5.38;;;25.10;86.50;;;;;;5109733;27;20031;-71
2022/06/25 02:43:52;;;;;;;9.88;5.00;;;24.80;86.20;;;;;;5136899;27;20116;-69
2022/06/25 02:46:18;;;;;;;7.28;5.40;;;25.10;86.50;;;;;;5153702;27;20046;-68
2022/06/25 02:48:44;;;;;;;8.52;5.13;;;24.70;89.50;;;;;;5119693;27;20046;-71
2022/06/25 02:51:10;;;;;;;8.13;5.00;;;25.00;89.20;;;;;;5152936;27;20043;-67
2022/06/25 02:53:35;;;;;;;9.65;5.07;;;24.80;86.00;;;;;;5147166;27;20042;-68
2022/06/25 02:58:55;;;;;;;7.15;5.07;;;25.00;86.70;;;;;;5136099;27;20074;-71
2022/06/25 03:01:28;;;;;;;8.05;5.22;;;24.90;85.10;;;;;;5119969;27;20054;-69
2022/06/25 03:03:54;;;;;;;7.93;5.50;;;24.90;86.60;;;;;;5126122;27;20070;-71
2022/06/25 03:06:20;;;;;;;9.48;5.13;;;25.10;86.30;;;;;;5125956;27;20052;-69
2022/06/25 03:08:46;;;;;;;8.27;4.95;;;24.90;86.10;;;;;;5133730;27;20046;-71
2022/06/25 03:11:12;;;;;;;9.45;5.75;;;24.80;86.30;;;;;;5133543;27;20039;-71
2022/06/25 03:13:37;;;;;;;8.07;4.80;;;25.00;86.00;;;;;;5134188;27;20062;-71
2022/06/25 03:16:04;;;;;;;6.88;4.70;;;25.00;86.30;;;;;;5132839;27;20473;-72
2022/06/25 03:18:29;;;;;;;8.75;5.03;;;24.90;86.10;;;;;;5135022;27;20046;-70
2022/06/25 03:20:55;;;;;;;6.32;4.75;;;25.10;86.80;;;;;;5134974;27;20050;-70
2022/06/25 03:23:22;;;;;;;7.10;5.00;;;24.70;85.90;;;;;;5132953;27;20043;-71
2022/06/25 03:25:48;;;;;;;6.45;4.68;;;25.10;86.30;;;;;;5131927;27;20050;-71
2022/06/25 03:28:14;;;;;;;7.45;5.00;;;24.80;86.10;;;;;;5132689;27;20039;-72
2022/06/25 03:30:40;;;;;;;8.30;4.97;;;24.80;86.10;;;;;;5133846;27;20043;-71
2022/06/25 03:33:05;;;;;;;8.65;5.55;;;25.00;86.10;;;;;;5134030;27;20039;-68
2022/06/25 03:35:31;;;;;;;7.00;5.20;;;24.80;89.00;;;;;;5116360;27;20047;-72
2022/06/25 03:37:57;;;;;;;10.00;5.05;;;25.00;86.10;;;;;;5132973;27;20035;-71
2022/06/25 03:40:22;;;;;;;7.40;5.20;;;24.60;85.90;;;;;;5131371;27;20043;-72
2022/06/25 03:42:49;;;;;;;6.25;5.30;;;25.10;89.00;;;;;;5134278;27;20070;-71
2022/06/25 03:45:15;;;;;;;9.35;5.68;;;24.90;86.10;;;;;;5126185;27;20412;-72
2022/06/25 03:47:41;;;;;;;8.45;5.13;;;;;;;;;;5114138;28;20044;-67
2022/06/25 03:50:07;;;;;;;7.65;5.05;;;24.90;84.20;;;;;;5130666;27;20414;-71
2022/06/25 03:52:33;;;;;;;9.77;5.10;;;24.90;85.80;;;;;;5133360;27;20104;-71
2022/06/25 03:54:58;;;;;;;6.35;4.65;;;25.10;86.10;;;;;;5133154;27;20445;-72
2022/06/25 03:57:24;;;;;;;13.23;5.57;;;25.20;89.10;;;;;;5114116;28;20044;-71
2022/06/25 03:59:51;;;;;;;8.40;5.07;;;25.30;86.40;;;;;;5125248;27;20043;-72
2022/06/25 04:02:16;;;;;;;7.78;4.85;;;25.00;86.10;;;;;;5134188;27;20039;-72
2022/06/25 04:04:42;;;;;;;6.28;4.72;;;25.10;85.90;;;;;;5154476;27;20043;-68
2022/06/25 04:07:08;;;;;;;7.72;5.28;;;24.90;85.70;;;;;;5154163;27;20172;-71
2022/06/25 04:09:34;;;;;;;8.02;5.03;;;24.80;85.70;;;;;;5150999;27;20085;-74
2022/06/25 04:12:00;;;;;;;7.60;5.15;;;25.00;88.50;;;;;;5135837;27;20046;-72
2022/06/25 04:14:25;;;;;;;7.78;5.70;;;25.00;85.70;;;;;;5154773;27;20046;-67
2022/06/25 04:16:51;;;;;;;8.20;5.75;;;24.80;85.40;;;;;;5155143;27;20494;-71
2022/06/25 04:19:17;;;;;;;8.73;5.60;;;25.00;88.50;;;;;;5135267;27;20412;-72
2022/06/25 04:21:47;;;;;;;8.35;5.43;;;25.00;85.40;;;;;;5155113;27;20074;-71
2022/06/25 04:24:15;;;;;;;7.65;5.18;;;24.90;85.50;;;;;;5155138;27;20074;-72
2022/06/25 04:26:41;;;;;;;10.20;5.68;;;25.10;85.50;;;;;;5154545;27;20043;-71
2022/06/25 04:29:08;;;;;;;9.43;5.88;;;25.00;85.60;;;;;;5135563;27;20039;-71
2022/06/25 04:31:35;;;;;;;7.68;5.60;;;25.10;85.60;;;;;;5138483;27;20039;-71
2022/06/25 04:34:01;;;;;;;8.98;5.53;;;25.00;85.70;;;;;;5116761;28;20078;-72
2022/06/25 04:36:27;;;;;;;8.18;5.70;;;25.00;85.50;;;;;;5152667;27;20073;-69
2022/06/25 04:38:53;;;;;;;8.57;5.03;;;25.20;85.60;;;;;;5155042;27;20050;-72
2022/06/25 04:41:19;;;;;;;7.18;4.80;;;25.00;88.20;;;;;;5132819;27;20045;-69
2022/06/25 04:43:45;;;;;;;7.05;4.93;;;25.10;85.30;;;;;;5134844;27;20399;-70
2022/06/25 04:46:11;;;;;;;9.57;5.28;;;25.10;85.20;;;;;;5121494;27;20091;-71
2022/06/25 04:48:36;;;;;;;9.18;4.97;;;25.30;85.50;;;;;;5149181;27;20047;-68
2022/06/25 04:51:02;;;;;;;5.97;4.53;;;25.10;88.00;;;;;;5138097;27;20039;-72
2022/06/25 04:53:28;;;;;;;6.95;4.07;;;25.30;88.10;;;;;;5118850;27;20046;-72
2022/06/25 04:55:54;;;;;;;8.75;4.68;;;25.30;85.20;;;;;;5152001;27;20045;-71
2022/06/25 04:58:19;;;;;;;7.40;4.55;;;25.40;84.80;;;;;;5139983;27;20064;-72
2022/06/25 05:00:45;;;;;;;6.82;4.10;;;26.00;84.80;;;;;;5129445;27;20499;-71
2022/06/25 05:03:11;;;;;;;6.47;4.38;;;25.80;84.40;;;;;;5136915;27;20055;-72
2022/06/25 05:05:37;;;;;;;8.73;4.30;;;25.80;83.80;;;;;;5158409;27;20487;-68
2022/06/25 05:08:03;;;;;;;5.97;4.10;;;26.10;83.80;;;;;;5157021;27;20043;-72
2022/06/25 05:10:29;;;;;;;7.88;4.22;;;26.30;83.50;;;;;;5136894;27;20051;-72
2022/06/25 05:13:12;;;;;;;7.60;4.10;;;26.30;83.10;;;;;;5139068;27;20038;-70
2022/06/25 05:15:42;;;;;;;7.35;4.32;;;26.50;81.90;;;;;;5125380;27;20061;-72
2022/06/25 05:18:09;;;;;;;6.60;4.53;;;26.60;83.00;;;;;;5158434;27;20042;-72
2022/06/25 05:20:41;;;;;;;7.78;4.63;;;26.60;82.50;;;;;;5139638;27;20034;-71
2022/06/25 05:23:07;;;;;;;6.00;4.50;;;26.90;82.50;;;;;;5137804;27;20050;-69
2022/06/25 05:25:33;;;;;;;6.60;4.38;;;27.00;81.90;;;;;;5155922;27;20488;-72
2022/06/25 05:27:59;;;;;;;5.75;4.50;;;26.80;81.40;;;;;;5158211;27;20046;-72
2022/06/25 05:30:25;;;;;;;5.95;4.30;;;27.10;81.50;;;;;;5156661;27;20559;-72
2022/06/25 05:32:51;;;;;;;6.78;4.45;;;27.00;81.00;;;;;;5139335;27;20078;-70
2022/06/25 05:35:16;;;;;;;6.30;4.40;;;27.20;80.90;;;;;;5153965;27;20073;-70
2022/06/25 05:37:42;;;;;;;5.13;3.78;;;27.40;80.60;;;;;;5157620;27;20042;-70
2022/06/25 05:40:09;;;;;;;6.90;3.88;;;27.50;80.60;;;;;;5157467;27;20050;-69
2022/06/25 05:42:36;;;;;;;5.97;3.45;;;27.40;79.80;;;;;;5157314;27;20103;-69
2022/06/25 05:45:03;;;;;;;6.20;4.18;;;27.60;80.40;;;;;;5153226;27;20038;-72
2022/06/25 05:47:28;;;;;;;5.60;3.70;;;27.50;80.20;;;;;;5139163;27;20067;-71
2022/06/25 05:49:54;;;;;;;62.13;13.82;;;27.70;80.20;;;;;;5157846;27;20073;-70
2022/06/25 05:52:20;;;;;;;50.63;11.02;;;27.90;80.00;;;;;;5144337;27;20041;-72
2022/06/25 05:54:45;;;;;;;41.13;12.57;;;27.80;79.90;;;;;;5139318;27;20866;-64
2022/06/25 05:57:11;;;;;;;40.45;11.80;;;27.80;79.60;;;;;;5157287;27;20451;-64
2022/06/25 05:59:37;;;;;;;33.63;11.23;;;27.80;79.80;;;;;;5137275;27;20456;-67
2022/06/25 06:02:03;;;;;;;26.48;11.07;;;27.70;79.80;;;;;;5133828;27;20043;-71
2022/06/25 06:04:29;;;;;;;21.02;9.07;;;27.90;79.80;;;;;;5147926;27;20534;-71
2022/06/25 06:06:54;;;;;;;18.35;8.82;;;27.70;79.60;;;;;;5154063;27;20053;-70
2022/06/25 06:09:20;;;;;;;15.02;8.38;;;27.60;80.30;;;;;;5121551;27;20161;-68
2022/06/25 06:11:46;;;;;;;18.58;8.68;;;27.20;79.80;;;;;;5156851;27;20143;-71
2022/06/25 06:14:12;;;;;;;14.18;7.07;;;27.40;80.20;;;;;;5137981;27;20043;-70
2022/06/25 06:16:38;;;;;;;14.25;7.47;;;27.30;80.30;;;;;;5155154;27;20035;-67
2022/06/25 06:19:04;;;;;;;11.32;6.65;;;27.60;80.60;;;;;;5136893;27;20484;-71
2022/06/25 06:21:29;;;;;;;13.45;7.30;;;27.50;80.40;;;;;;5138027;27;20066;-68
2022/06/25 06:23:55;;;;;;;14.43;7.28;;;27.20;80.50;;;;;;5138047;27;20049;-66
2022/06/25 06:26:21;;;;;;;10.18;7.07;;;27.30;80.20;;;;;;5155310;27;20115;-68
2022/06/25 06:28:47;;;;;;;8.60;5.88;;;27.30;80.60;;;;;;5153187;27;20035;-67
2022/06/25 06:31:12;;;;;;;10.23;6.60;;;27.10;80.60;;;;;;5138231;27;20503;-69
2022/06/25 06:33:38;;;;;;;8.18;6.57;;;27.30;81.10;;;;;;5138096;27;20104;-69
2022/06/25 06:36:04;;;;;;;10.02;6.93;;;26.90;81.00;;;;;;5137604;27;20122;-63
2022/06/25 06:38:30;;;;;;;9.48;6.47;;;27.10;80.90;;;;;;5152726;27;20047;-67
2022/06/25 06:40:56;;;;;;;9.13;6.43;;;26.90;81.60;;;;;;5135845;27;20086;-69
2022/06/25 06:43:21;;;;;;;10.02;7.00;;;26.80;81.50;;;;;;5156672;27;20095;-69
2022/06/25 06:45:47;;;;;;;9.05;6.85;;;26.80;82.00;;;;;;5142120;27;20405;-69
2022/06/25 06:48:13;;;;;;;10.27;7.15;;;26.90;81.90;;;;;;5136933;27;20055;-69
2022/06/25 06:50:39;;;;;;;8.40;6.90;;;26.80;82.10;;;;;;5137142;27;20476;-69
2022/06/25 06:53:04;;;;;;;11.27;6.32;;;26.70;82.20;;;;;;5137599;27;20476;-69
2022/06/25 06:55:30;;;;;;;11.15;7.22;;;26.70;82.40;;;;;;5156468;27;20035;-71
2022/06/25 06:57:56;;;;;;;7.25;5.93;;;26.90;82.60;;;;;;5131900;27;20480;-71
2022/06/25 07:00:21;;;;;;;9.48;6.78;;;26.70;82.70;;;;;;5129497;27;20546;-64
2022/06/25 07:02:47;;;;;;;7.85;6.28;;;26.70;82.60;;;;;;5152248;27;20138;-69
2022/06/25 07:05:13;;;;;;;9.82;6.53;;;26.90;82.90;;;;;;5134329;27;20055;-71
2022/06/25 07:07:39;;;;;;;10.23;6.68;;;26.70;82.70;;;;;;5140413;27;20399;-67
2022/06/25 07:10:05;;;;;;;9.68;5.60;;;26.50;82.70;;;;;;5137847;27;20432;-70
2022/06/25 07:12:31;;;;;;;8.75;5.88;;;26.80;82.50;;;;;;5133810;27;20126;-66
2022/06/25 07:14:57;;;;;;;10.25;5.55;;;26.70;82.90;;;;;;5135069;27;20047;-70
2022/06/25 07:17:23;;;;;;;7.30;5.43;;;26.40;82.40;;;;;;5141854;27;20049;-68
2022/06/25 07:19:48;;;;;;;6.47;5.28;;;26.80;83.00;;;;;;5137243;27;20035;-63
2022/06/25 07:22:14;;;;;;;7.70;5.72;;;26.80;83.00;;;;;;5136510;27;20126;-70
2022/06/25 07:24:40;;;;;;;10.00;5.85;;;26.80;83.10;;;;;;5155627;27;20054;-70
2022/06/25 07:27:06;;;;;;;7.68;5.03;;;26.60;82.60;;;;;;5137010;27;20129;-69
2022/06/25 07:29:31;;;;;;;7.35;5.32;;;26.70;82.90;;;;;;5154955;27;20049;-64
2022/06/25 07:31:57;;;;;;;7.75;5.80;;;26.90;82.90;;;;;;5135498;27;20361;-71
2022/06/25 07:34:23;;;;;;;7.50;5.05;;;26.80;83.10;;;;;;5155719;27;20384;-71
2022/06/25 07:36:49;;;;;;;9.73;5.15;;;26.90;82.60;;;;;;5147869;27;20042;-70
2022/06/25 07:39:14;;;;;;;7.32;5.20;;;26.90;82.80;;;;;;5135196;27;20551;-71
2022/06/25 07:41:40;;;;;;;10.93;5.93;;;26.90;82.70;;;;;;5155515;27;20035;-70
2022/06/25 07:44:06;;;;;;;7.18;5.35;;;26.70;82.60;;;;;;5155604;27;20480;-70
2022/06/25 07:46:32;;;;;;;8.38;5.57;;;27.20;83.10;;;;;;5136458;27;20042;-69
2022/06/25 07:48:57;;;;;;;8.70;5.00;;;27.30;82.90;;;;;;5135982;27;20047;-71
2022/06/25 07:54:07;;;;;;;9.02;5.40;;;27.30;81.70;;;;;;5136907;27;20047;-70
2022/06/25 07:56:33;;;;;;;7.70;5.25;;;27.00;82.40;;;;;;5154506;27;20668;-70
2022/06/25 07:58:59;;;;;;;7.75;4.82;;;27.30;82.60;;;;;;5155304;27;20035;-70
2022/06/25 08:01:25;;;;;;;10.55;4.80;;;27.20;82.50;;;;;;5148827;27;20122;-70
2022/06/25 08:03:51;;;;;;;7.20;4.70;;;27.10;82.70;;;;;;5134236;27;20461;-68
2022/06/25 08:06:16;;;;;;;6.72;4.28;;;27.20;82.10;;;;;;5116097;28;20057;-69
2022/06/25 08:08:42;;;;;;;7.75;4.60;;;27.00;81.90;;;;;;5117074;27;20054;-70
2022/06/25 08:11:08;;;;;;;7.25;4.40;;;27.10;81.60;;;;;;5154155;27;20476;-70
2022/06/25 08:13:35;;;;;;;9.40;4.32;;;27.30;82.20;;;;;;5154967;27;20057;-70
2022/06/25 08:16:00;;;;;;;7.88;4.07;;;26.90;81.70;;;;;;5154807;27;20039;-69
2022/06/25 08:18:26;;;;;;;7.10;4.43;;;27.10;81.70;;;;;;5135890;27;20058;-72
2022/06/25 08:20:52;;;;;;;8.00;4.60;;;27.30;81.50;;;;;;5138195;27;20086;-72
2022/06/25 08:23:18;;;;;;;6.70;4.30;;;27.30;81.80;;;;;;5158373;27;20050;-71
2022/06/25 08:25:43;;;;;;;5.82;3.92;;;27.40;81.50;;;;;;5138521;27;20043;-70
2022/06/25 08:28:09;;;;;;;6.25;3.67;;;27.30;81.40;;;;;;5140137;27;20053;-70
2022/06/25 08:30:35;;;;;;;6.35;3.75;;;27.30;81.40;;;;;;5123488;27;20471;-70
2022/06/25 08:33:01;;;;;;;6.65;3.95;;;27.40;81.20;;;;;;5155109;27;20102;-67
2022/06/25 08:35:26;;;;;;;6.32;3.85;;;27.30;81.10;;;;;;5123424;27;20054;-67
2022/06/25 08:37:52;;;;;;;7.45;3.80;;;27.40;80.90;;;;;;5158875;27;20053;-71
2022/06/25 08:40:19;;;;;;;5.53;3.40;;;27.40;80.60;;;;;;5138456;27;20130;-67
2022/06/25 08:42:47;;;;;;;6.43;3.00;;;27.40;80.70;;;;;;5156126;27;20042;-71
2022/06/25 08:45:13;;;;;;;6.20;2.78;;;27.40;80.40;;;;;;5140273;27;20061;-69
2022/06/25 08:47:43;;;;;;;7.18;3.42;;;27.50;79.80;;;;;;5139417;27;20051;-70
2022/06/25 08:50:10;;;;;;;6.32;3.00;;;27.40;80.30;;;;;;5118851;27;20508;-68
2022/06/25 08:52:37;;;;;;;5.85;2.92;;;27.40;79.20;;;;;;5119658;27;20395;-68
2022/06/25 08:55:05;;;;;;;6.25;3.08;;;27.60;80.10;;;;;;5137860;27;20090;-70
2022/06/25 08:57:31;;;;;;;5.80;3.20;;;27.70;79.20;;;;;;5104885;27;20090;-67
2022/06/25 08:59:57;;;;;;;4.85;2.70;;;27.80;79.70;;;;;;5135883;27;20082;-71
2022/06/25 09:02:22;;;;;;;6.80;2.90;;;27.50;79.40;;;;;;5139583;27;20078;-70
2022/06/25 09:04:48;;;;;;;6.35;3.15;;;27.30;79.60;;;;;;5158082;27;20486;-71
2022/06/25 09:07:14;;;;;;;5.68;3.15;;;27.50;79.40;;;;;;5157879;27;20047;-64
2022/06/25 09:09:44;;;;;;;8.75;2.83;;;27.20;79.70;;;;;;5158243;27;20122;-71
2022/06/25 09:12:15;;;;;;;5.30;2.75;;;27.30;79.40;;;;;;5157761;27;20043;-69
2022/06/25 09:14:41;;;;;;;5.18;2.83;;;27.50;79.50;;;;;;5122993;27;20107;-67
2022/06/25 09:17:12;;;;;;;9.60;3.28;;;27.30;79.10;;;;;;5138613;27;20046;-70
2022/06/25 09:19:39;;;;;;;10.77;2.88;;;27.20;79.60;;;;;;5158641;27;20089;-71
2022/06/25 09:22:09;;;;;;;5.18;2.58;;;27.30;79.60;;;;;;5158108;27;20050;-72
2022/06/25 09:24:55;;;;;;;5.60;2.58;;;27.40;78.10;;;;;;5157165;27;20050;-71
2022/06/25 09:27:42;;;;;;;6.03;2.50;;;27.20;79.70;;;;;;5157737;27;20113;-69
2022/06/25 09:30:11;;;;;;;7.13;2.67;;;27.60;79.60;;;;;;5142267;27;20055;-72
2022/06/25 09:32:43;;;;;;;5.70;2.60;;;27.30;79.20;;;;;;5149255;27;20039;-68
2022/06/25 09:35:10;;;;;;;;;;;27.50;80.00;;;;;;5157977;27;20042;-66
2022/06/25 09:37:36;;;;;;;8.55;2.78;;;27.80;79.00;;;;;;5118984;27;19919;-69
2022/06/25 09:40:02;;;;;;;4.55;2.53;;;27.60;79.00;;;;;;5119035;27;20510;-72
2022/06/25 09:42:31;;;;;;;4.82;2.63;;;27.60;78.50;;;;;;5137996;27;20039;-71
2022/06/25 09:45:09;;;;;;;6.15;2.50;;;27.80;79.20;;;;;;5139144;27;20042;-72
2022/06/25 09:47:44;;;;;;;5.65;2.85;;;27.90;78.50;;;;;;5138720;27;20038;-72
2022/06/25 09:50:20;;;;;;;8.02;3.20;;;27.60;79.00;;;;;;5139915;27;20169;-72
2022/06/25 09:52:53;;;;;;;5.68;2.45;;;27.50;78.60;;;;;;5139110;27;20405;-72
2022/06/25 09:55:20;;;;;;;7.13;2.58;;;27.50;76.90;;;;;;5156792;27;20046;-71
2022/06/25 09:57:47;;;;;;;4.25;2.33;;;27.50;78.50;;;;;;5156868;27;20042;-68
2022/06/25 10:00:14;;;;;;;9.50;2.78;;;27.40;78.20;;;;;;5139208;27;20049;-73
2022/06/25 10:02:41;;;;;;;5.78;2.22;;;27.60;77.90;;;;;;5157541;27;20438;-71
2022/06/25 10:05:07;;;;;;;5.68;2.70;;;27.60;78.50;;;;;;5156669;27;20047;-73
2022/06/25 10:10:19;;;;;;;4.70;2.28;;;27.50;77.00;;;;;;5136360;27;20043;-71
2022/06/25 10:12:48;;;;;;;7.45;2.65;;;27.30;78.30;;;;;;5141126;27;20087;-71
2022/06/25 10:15:19;;;;;;;4.60;2.80;;;27.40;78.50;;;;;;5156198;27;20448;-71
2022/06/25 10:17:46;;;;;;;6.07;2.97;;;27.10;78.50;;;;;;5136360;27;20039;-70
2022/06/25 10:20:13;;;;;;;6.82;3.08;;;27.30;78.40;;;;;;5137287;27;20042;-63
2022/06/25 10:22:38;;;;;;;4.50;2.40;;;27.20;78.70;;;;;;5138655;27;20081;-63
2022/06/25 10:25:14;;;;;;;4.13;2.45;;;27.30;78.70;;;;;;5138344;27;20469;-63
2022/06/25 10:27:44;;;;;;;5.20;2.70;;;27.50;78.90;;;;;;5137118;27;20049;-63
2022/06/25 10:30:11;;;;;;;6.65;2.70;;;27.30;79.10;;;;;;5122054;27;20046;-63
2022/06/25 10:32:47;;;;;;;5.22;2.72;;;27.20;79.20;;;;;;5137846;27;20086;-62
2022/06/25 10:35:30;;;;;;;6.55;2.55;;;27.40;79.20;;;;;;5138125;27;20050;-64
2022/06/25 10:38:14;;;;;;;4.93;2.55;;;27.40;79.40;;;;;;5117253;27;20395;-64
2022/06/25 10:40:59;;;;;;;6.63;2.60;;;27.40;77.70;;;;;;5137241;27;20491;-62
2022/06/25 10:43:40;;;;;;;6.10;2.60;;;27.70;77.90;;;;;;5119698;27;20047;-62
2022/06/25 10:46:28;;;;;;;6.30;2.80;;;27.30;77.80;;;;;;5156712;27;20046;-63
2022/06/25 10:49:10;;;;;;;8.48;2.72;;;27.50;79.40;;;;;;5133613;27;20031;-64
2022/06/25 10:51:38;;;;;;;5.95;2.78;;;27.70;78.20;;;;;;5154721;27;20043;-63
2022/06/25 10:54:25;;;;;;;6.90;2.60;;;27.20;78.70;;;;;;5156215;27;20038;-63
2022/06/25 10:56:55;;;;;;;8.82;3.00;;;27.70;79.30;;;;;;5154846;27;20046;-63
2022/06/25 10:59:34;;;;;;;5.38;2.58;;;27.60;79.60;;;;;;5128809;27;20405;-62
2022/06/25 11:02:07;;;;;;;6.13;2.42;;;27.50;78.90;;;;;;5122617;27;20046;-63
2022/06/25 11:04:34;;;;;;;5.18;2.42;;;27.50;78.60;;;;;;5155905;27;20090;-63
2022/06/25 11:07:13;;;;;;;5.90;2.63;;;27.20;78.10;;;;;;5120479;27;20449;-62
2022/06/25 11:09:39;;;;;;;6.05;2.40;;;27.40;76.90;;;;;;5132195;27;20039;-62
2022/06/25 11:12:06;;;;;;;6.95;2.60;;;27.10;77.70;;;;;;5099997;27;20506;-63
2022/06/25 11:14:32;;;;;;;7.38;2.58;;;27.00;77.50;;;;;;5135158;27;20130;-63
2022/06/25 11:16:59;;;;;;;5.47;2.15;;;27.30;77.60;;;;;;5135446;27;20088;-63
2022/06/25 11:19:25;;;;;;;6.57;2.55;;;27.40;78.40;;;;;;5117506;27;20043;-64
2022/06/25 11:21:52;;;;;;;8.82;2.70;;;27.20;78.00;;;;;;5154175;27;20507;-63
2022/06/25 11:24:19;;;;;;;6.70;2.70;;;27.20;78.40;;;;;;5136355;27;20115;-63
2022/06/25 11:29:39;;;;;;;8.13;3.00;;;27.20;78.80;;;;;;5155869;27;20467;-62
2022/06/25 11:32:06;;;;;;;5.95;2.78;;;27.20;78.70;;;;;;5153709;27;20047;-63
2022/06/25 11:34:32;;;;;;;7.85;2.97;;;27.20;78.40;;;;;;5137080;27;20051;-63
2022/06/25 11:37:07;;;;;;;10.57;2.85;;;27.30;78.40;;;;;;5137256;27;20042;-63
2022/06/25 11:39:33;;;;;;;8.35;3.13;;;27.30;79.00;;;;;;5155104;27;20143;-63
2022/06/25 11:41:59;;;;;;;5.97;2.70;;;27.20;78.70;;;;;;5134527;27;20163;-63
2022/06/25 11:44:25;;;;;;;8.88;2.75;;;27.20;78.40;;;;;;5155624;27;20365;-62
2022/06/25 11:46:51;;;;;;;7.63;2.90;;;27.10;78.10;;;;;;5153690;27;20053;-62
2022/06/25 11:49:20;;;;;;;4.72;2.70;;;27.00;78.50;;;;;;5155607;27;20395;-62
2022/06/25 11:51:47;;;;;;;6.10;2.63;;;27.30;78.30;;;;;;5119883;27;20083;-62
2022/06/25 11:54:13;;;;;;;9.88;2.40;;;27.30;78.30;;;;;;5136180;27;20114;-63
2022/06/25 11:56:49;;;;;;;6.03;2.30;;;27.40;77.80;;;;;;5153786;27;20110;-63
2022/06/25 11:59:22;;;;;;;7.50;2.65;;;27.30;76.80;;;;;;5136652;27;20051;-62
2022/06/25 12:01:49;;;;;;;6.50;2.65;;;27.40;78.20;;;;;;5128693;27;20387;-62
2022/06/25 12:04:15;;;;;;;5.72;2.42;;;27.30;78.00;;;;;;5149900;27;20138;-63
2022/06/25 12:06:42;;;;;;;4.22;2.38;;;27.10;77.20;;;;;;5154193;27;20039;-63
2022/06/25 12:09:08;;;;;;;6.20;2.40;;;27.40;78.00;;;;;;5114070;27;20057;-67
2022/06/25 12:11:33;;;;;;;5.15;2.55;;;27.30;78.30;;;;;;5154549;27;20039;-63
2022/06/25 12:13:59;;;;;;;5.22;2.40;;;27.50;78.30;;;;;;5136683;27;20469;-63
2022/06/25 12:16:39;;;;;;;5.20;2.30;;;27.40;78.00;;;;;;5135074;27;20042;-63
2022/06/25 12:19:05;;;;;;;5.78;2.15;;;27.20;78.10;;;;;;5138295;27;20620;-62
2022/06/25 12:21:31;;;;;;;6.45;2.28;;;27.50;77.90;;;;;;5136767;27;20460;-63
2022/06/25 12:23:58;;;;;;;3.83;2.00;;;27.40;77.50;;;;;;5155124;27;20047;-62
2022/06/25 12:26:27;;;;;;;10.05;2.78;;;27.30;77.90;;;;;;5134083;27;20096;-63
2022/06/25 12:28:53;;;;;;;4.88;3.00;;;27.20;76.40;;;;;;5133021;27;20071;-63
2022/06/25 12:31:19;;;;;;;6.15;2.65;;;27.20;77.60;;;;;;5119196;27;20130;-63
2022/06/25 12:33:50;;;;;;;6.40;2.05;;;27.30;77.50;;;;;;5136088;27;20052;-63
2022/06/25 12:36:18;;;;;;;4.80;2.00;;;27.20;78.00;;;;;;5134923;27;20050;-63
2022/06/25 12:38:44;;;;;;;5.88;2.40;;;27.30;77.90;;;;;;5135802;27;20046;-66
2022/06/25 12:41:10;;;;;;;4.57;2.20;;;27.50;77.80;;;;;;5136161;27;20043;-63
2022/06/25 12:43:46;;;;;;;3.83;2.30;;;27.50;77.80;;;;;;5153669;27;20042;-63
2022/06/25 12:46:12;;;;;;;3.45;1.83;;;27.50;78.30;;;;;;5118714;27;20060;-62
2022/06/25 12:48:37;;;;;;;6.60;2.55;;;27.50;77.60;;;;;;5136136;27;20039;-62
2022/06/25 12:51:14;;;;;;;6.63;2.22;;;27.20;77.30;;;;;;5135491;27;20045;-62
2022/06/25 12:53:41;;;;;;;6.70;1.95;;;27.90;78.30;;;;;;5136344;27;20179;-62
2022/06/25 12:56:08;;;;;;;5.47;2.00;;;27.60;77.30;;;;;;5154556;27;20045;-62